createdAt,value
2022-08-10T00:01:52.661Z,11.98
2022-08-10T00:04:22.129Z,16.73
2022-08-10T00:09:19.453Z,13.38
2022-08-10T00:11:47.008Z,11.70
2022-08-10T00:14:14.379Z,12.40
2022-08-10T00:16:41.668Z,10.85
2022-08-10T00:19:09.803Z,10.32
2022-08-10T00:21:37.400Z,9.98
2022-08-10T00:24:05.229Z,12.20
2022-08-10T00:27:52.277Z,10.50
2022-08-10T00:29:21.505Z,15.40
2022-08-10T00:31:57.851Z,10.30
2022-08-10T00:34:27.887Z,18.13
2022-08-10T00:36:55.644Z,13.75
2022-08-10T00:39:23.115Z,17.75
2022-08-10T00:42:01.781Z,27.17
2022-08-10T00:44:36.611Z,18.30
2022-08-10T00:47:04.252Z,17.60
2022-08-10T00:49:31.777Z,24.63
2022-08-10T00:51:59.220Z,29.02
2022-08-10T00:54:27.341Z,12.55
2022-08-10T00:57:17.720Z,27.25
2022-08-10T00:59:57.720Z,29.58
2022-08-10T01:02:29.795Z,24.33
2022-08-10T01:05:01.564Z,22.67
2022-08-10T01:07:55.729Z,19.35
2022-08-10T01:10:30.435Z,18.50
2022-08-10T01:13:06.776Z,27.83
2022-08-10T01:15:43.344Z,21.67
2022-08-10T01:18:15.180Z,30.02
2022-08-10T01:20:58.002Z,25.08
2022-08-10T01:23:51.469Z,25.25
2022-08-10T01:26:40.897Z,16.85
2022-08-10T01:29:22.182Z,23.92
2022-08-10T01:31:57.143Z,42.75
2022-08-10T01:34:29.353Z,29.42
2022-08-10T01:37:03.412Z,26.60
2022-08-10T01:39:36.946Z,23.70
2022-08-10T01:42:06.571Z,37.15
2022-08-10T01:44:38.289Z,38.40
2022-08-10T01:47:30.132Z,41.00
2022-08-10T01:50:03.149Z,52.13
2022-08-10T01:52:34.541Z,47.53
2022-08-10T01:55:01.923Z,41.92
2022-08-10T01:57:33.375Z,44.55
2022-08-10T02:00:03.341Z,65.57
2022-08-10T02:02:38.185Z,42.50
2022-08-10T02:05:08.024Z,50.78
2022-08-10T02:07:37.958Z,46.67
2022-08-10T02:10:10.905Z,28.00
2022-08-10T02:12:41.289Z,48.53
2022-08-10T02:15:13.656Z,43.60
2022-08-10T02:17:59.498Z,42.88
2022-08-10T02:20:36.741Z,43.58
2022-08-10T02:23:08.910Z,47.05
2022-08-10T02:25:40.829Z,42.78
2022-08-10T02:28:27.145Z,41.33
2022-08-10T02:31:02.985Z,38.15
2022-08-10T02:33:38.761Z,34.20
2022-08-10T02:36:27.962Z,24.63
2022-08-10T02:39:00.767Z,17.65
2022-08-10T02:45:01.817Z,26.73
2022-08-10T02:45:20.984Z,23.55
2022-08-10T02:47:22.628Z,19.38
2022-08-10T02:49:57.667Z,34.00
2022-08-10T02:52:35.391Z,47.38
2022-08-10T02:55:17.529Z,72.45
2022-08-10T02:58:12.534Z,50.10
2022-08-10T03:00:42.729Z,37.33
2022-08-10T03:03:15.878Z,40.78
2022-08-10T03:05:47.853Z,28.25
2022-08-10T03:08:19.424Z,33.67
2022-08-10T03:10:48.977Z,19.95
2022-08-10T03:15:46.368Z,20.02
2022-08-10T03:18:15.043Z,23.13
2022-08-10T03:20:45.351Z,17.35
2022-08-10T03:23:16.830Z,16.77
2022-08-10T03:25:54.425Z,18.25
2022-08-10T03:28:23.338Z,24.52
2022-08-10T03:30:51.315Z,20.42
2022-08-10T03:33:20.598Z,26.75
2022-08-10T03:36:41.525Z,27.33
2022-08-10T03:38:36.944Z,28.50
2022-08-10T03:41:06.549Z,20.60
2022-08-10T03:43:34.495Z,25.65
2022-08-10T03:46:06.467Z,23.05
2022-08-10T03:48:48.922Z,22.85
2022-08-10T03:51:19.683Z,15.73
2022-08-10T03:54:03.155Z,14.30
2022-08-10T03:56:36.376Z,16.00
2022-08-10T03:59:04.360Z,13.55
2022-08-10T04:02:46.580Z,20.27
2022-08-10T04:04:24.317Z,20.95
2022-08-10T04:06:55.800Z,17.77
2022-08-10T04:09:42.709Z,17.70
2022-08-10T04:12:12.734Z,17.33
2022-08-10T04:14:51.589Z,15.27
2022-08-10T04:18:04.946Z,17.23
2022-08-10T04:20:16.661Z,17.25
2022-08-10T04:22:47.210Z,21.48
2022-08-10T04:25:16.508Z,23.17
2022-08-10T04:27:44.839Z,17.70
2022-08-10T04:30:13.066Z,19.48
2022-08-10T04:32:42.321Z,18.40
2022-08-10T04:35:11.163Z,18.02
2022-08-10T04:37:47.237Z,19.73
2022-08-10T04:40:28.383Z,18.83
2022-08-10T04:43:01.424Z,15.82
2022-08-10T04:45:48.715Z,13.27
2022-08-10T04:48:41.634Z,15.95
2022-08-10T04:51:11.261Z,19.92
2022-08-10T04:54:05.722Z,17.45
2022-08-10T04:56:38.066Z,14.18
2022-08-10T04:59:07.011Z,16.58
2022-08-10T05:02:22.399Z,10.55
2022-08-10T05:04:35.284Z,13.85
2022-08-10T05:07:15.995Z,9.15
2022-08-10T05:10:02.275Z,12.60
2022-08-10T05:12:36.347Z,11.70
2022-08-10T05:15:06.727Z,11.68
2022-08-10T05:20:01.617Z,14.20
2022-08-10T05:22:33.605Z,15.32
2022-08-10T05:25:00.871Z,12.02
2022-08-10T05:27:28.364Z,10.70
2022-08-10T05:30:02.147Z,11.85
2022-08-10T05:32:32.175Z,5.95
2022-08-10T05:34:59.822Z,10.15
2022-08-10T05:38:10.560Z,12.07
2022-08-10T05:40:17.240Z,8.43
2022-08-10T05:42:44.597Z,10.35
2022-08-10T05:45:22.075Z,16.60
2022-08-10T05:48:54.022Z,9.32
2022-08-10T05:50:37.458Z,10.82
2022-08-10T05:54:01.894Z,7.85
2022-08-10T05:55:52.939Z,7.03
2022-08-10T05:58:20.349Z,10.10
2022-08-10T06:00:56.496Z,7.80
2022-08-10T06:03:27.727Z,7.43
2022-08-10T06:05:58.708Z,5.47
2022-08-10T06:08:31.678Z,7.65
2022-08-10T06:12:23.984Z,4.75
2022-08-10T06:14:30.514Z,5.28
2022-08-10T06:17:01.480Z,6.50
2022-08-10T06:19:31.063Z,8.68
2022-08-10T06:22:01.715Z,6.93
2022-08-10T06:24:31.313Z,7.60
2022-08-10T06:29:30.430Z,9.35
2022-08-10T06:32:01.238Z,10.43
2022-08-10T06:34:32.965Z,6.72
2022-08-10T06:37:03.212Z,9.25
2022-08-10T06:39:35.630Z,6.47
2022-08-10T06:42:14.722Z,9.77
2022-08-10T06:44:53.285Z,9.20
2022-08-10T06:47:30.552Z,8.65
2022-08-10T06:50:04.947Z,10.48
2022-08-10T06:52:37.615Z,7.75
2022-08-10T06:55:08.937Z,5.97
2022-08-10T06:57:39.015Z,6.03
2022-08-10T07:00:09.674Z,5.07
2022-08-10T07:02:45.295Z,4.43
2022-08-10T07:05:17.637Z,5.18
2022-08-10T07:07:47.317Z,3.58
2022-08-10T07:10:20.029Z,4.22
2022-08-10T07:12:49.107Z,10.45
2022-08-10T07:15:18.382Z,3.20
2022-08-10T07:17:47.881Z,8.23
2022-08-10T07:20:18.825Z,5.40
2022-08-10T07:23:53.842Z,4.38
2022-08-10T07:25:39.605Z,8.27
2022-08-10T07:28:08.550Z,7.60
2022-08-10T07:30:38.501Z,4.90
2022-08-10T07:33:08.462Z,7.43
2022-08-10T07:35:42.548Z,6.35
2022-08-10T07:38:18.785Z,5.93
2022-08-10T07:40:47.740Z,4.78
2022-08-10T07:43:17.414Z,2.88
2022-08-10T07:45:46.896Z,3.03
2022-08-10T07:48:19.045Z,2.25
2022-08-10T07:50:48.173Z,2.50
2022-08-10T07:53:21.738Z,1.55
2022-08-10T07:56:01.787Z,3.78
2022-08-10T07:58:46.332Z,3.92
2022-08-10T08:01:23.897Z,3.58
2022-08-10T08:04:05.531Z,3.55
2022-08-10T08:06:41.593Z,2.28
2022-08-10T08:09:11.074Z,2.28
2022-08-10T08:11:41.377Z,2.47
2022-08-10T08:14:10.199Z,1.63
2022-08-10T08:16:41.857Z,3.15
2022-08-10T08:19:35.532Z,5.10
2022-08-10T08:24:07.233Z,4.18
2022-08-10T08:24:52.626Z,3.35
2022-08-10T08:29:49.852Z,2.53
2022-08-10T08:34:49.467Z,2.88
2022-08-10T08:38:33.281Z,3.00
2022-08-10T08:40:10.921Z,4.95
2022-08-10T08:43:09.437Z,2.50
2022-08-10T08:46:00.980Z,3.42
2022-08-10T08:49:01.721Z,2.75
2022-08-10T08:52:06.332Z,2.65
2022-08-10T08:54:38.132Z,4.32
2022-08-10T08:57:11.386Z,3.97
2022-08-10T08:59:53.536Z,5.70
2022-08-10T09:02:54.769Z,3.95
2022-08-10T09:05:31.991Z,3.03
2022-08-10T09:08:49.722Z,4.00
2022-08-10T09:11:30.858Z,3.58
2022-08-10T09:14:06.438Z,2.38
2022-08-10T09:16:43.391Z,3.60
2022-08-10T09:19:19.766Z,3.55
2022-08-10T09:22:17.127Z,2.53
2022-08-10T09:24:56.852Z,5.03
2022-08-10T09:27:35.917Z,3.63
2022-08-10T09:30:06.427Z,2.53
2022-08-10T09:36:14.250Z,2.88
2022-08-10T09:36:20.577Z,5.70
2022-08-10T09:38:33.851Z,4.70
2022-08-10T09:41:16.246Z,2.20
2022-08-10T09:43:52.521Z,3.40
2022-08-10T09:46:38.886Z,6.68
2022-08-10T09:49:52.886Z,4.57
2022-08-10T09:52:22.263Z,3.60
2022-08-10T09:55:04.803Z,4.85
2022-08-10T09:57:44.467Z,2.70
2022-08-10T10:00:19.197Z,2.55
2022-08-10T10:02:57.922Z,5.97
2022-08-10T10:05:51.845Z,3.67
2022-08-10T10:08:32.539Z,3.08
2022-08-10T10:11:15.567Z,2.42
2022-08-10T10:14:02.596Z,2.78
2022-08-10T10:16:52.049Z,3.72
2022-08-10T10:19:39.948Z,3.10
2022-08-10T10:22:44.626Z,3.17
2022-08-10T10:25:21.960Z,3.47
2022-08-10T10:28:03.609Z,3.78
2022-08-10T10:30:46.041Z,2.03
2022-08-10T10:33:17.464Z,2.55
2022-08-10T10:35:55.085Z,5.72
2022-08-10T10:38:27.007Z,3.47
2022-08-10T10:41:03.234Z,2.25
2022-08-10T10:43:45.025Z,4.55
2022-08-10T10:46:26.056Z,2.92
2022-08-10T10:49:03.707Z,3.63
2022-08-10T10:51:38.658Z,3.00
2022-08-10T10:54:10.983Z,2.70
2022-08-10T10:56:52.061Z,2.20
2022-08-10T10:59:56.660Z,3.10
2022-08-10T11:02:33.765Z,2.42
2022-08-10T11:05:13.284Z,2.72
2022-08-10T11:07:53.209Z,2.15
2022-08-10T11:10:32.926Z,2.10
2022-08-10T11:14:24.598Z,5.45
2022-08-10T11:16:13.780Z,6.30
2022-08-10T11:18:55.004Z,4.15
2022-08-10T11:21:31.743Z,2.92
2022-08-10T11:24:48.420Z,2.95
2022-08-10T11:26:58.800Z,4.35
2022-08-10T11:29:34.848Z,3.22
2022-08-10T11:32:07.230Z,2.55
2022-08-10T11:35:11.361Z,5.55
2022-08-10T11:38:28.474Z,2.88
2022-08-10T11:40:39.291Z,3.38
2022-08-10T11:43:13.426Z,3.17
2022-08-10T11:45:51.981Z,3.30
2022-08-10T11:48:53.988Z,2.35
2022-08-10T11:51:32.461Z,1.83
2022-08-10T11:54:05.548Z,2.28
2022-08-10T11:56:44.678Z,2.00
2022-08-10T11:59:32.369Z,1.48
2022-08-10T12:02:00.532Z,1.70
2022-08-10T12:04:29.170Z,2.53
2022-08-10T12:06:59.101Z,1.88
2022-08-10T12:10:09.879Z,1.77
2022-08-10T12:12:16.999Z,1.92
2022-08-10T12:17:20.362Z,2.88
2022-08-10T12:19:59.432Z,2.90
2022-08-10T12:22:38.822Z,3.85
2022-08-10T12:25:11.551Z,2.42
2022-08-10T12:28:07.499Z,3.47
2022-08-10T12:30:38.554Z,2.13
2022-08-10T12:33:11.800Z,4.07
2022-08-10T12:36:14.926Z,3.17
2022-08-10T12:38:41.062Z,7.70
2022-08-10T12:41:17.691Z,3.17
2022-08-10T12:44:12.059Z,3.25
2022-08-10T12:46:49.331Z,3.40
2022-08-10T12:49:21.580Z,3.30
2022-08-10T12:51:59.166Z,4.82
2022-08-10T12:54:34.212Z,5.72
2022-08-10T12:57:05.756Z,3.70
2022-08-10T12:59:43.512Z,3.03
2022-08-10T13:02:18.824Z,4.90
2022-08-10T13:04:49.617Z,3.10
2022-08-10T13:08:24.231Z,3.63
2022-08-10T13:10:16.319Z,1.80
2022-08-10T13:12:47.024Z,4.88
2022-08-10T13:15:47.978Z,2.72
2022-08-10T13:18:18.237Z,2.22
2022-08-10T13:20:50.841Z,5.90
2022-08-10T13:23:21.760Z,1.98
2022-08-10T13:25:52.043Z,4.03
2022-08-10T13:28:37.716Z,4.20
2022-08-10T13:31:16.281Z,2.17
2022-08-10T13:34:38.863Z,6.95
2022-08-10T13:36:39.042Z,4.82
2022-08-10T13:39:08.519Z,4.50
2022-08-10T13:41:40.443Z,6.38
2022-08-10T13:44:09.751Z,4.13
2022-08-10T13:49:09.854Z,3.45
2022-08-10T13:51:56.622Z,2.45
2022-08-10T13:54:28.649Z,5.60
2022-08-10T13:56:59.215Z,8.15
2022-08-10T14:00:33.634Z,4.95
2022-08-10T14:02:24.100Z,8.07
2022-08-10T14:04:54.520Z,4.80
2022-08-10T14:07:23.122Z,7.97
2022-08-10T14:09:52.188Z,4.00
2022-08-10T14:15:00.768Z,3.95
2022-08-10T14:17:28.806Z,4.88
2022-08-10T14:19:58.580Z,7.20
2022-08-10T14:22:33.948Z,3.25
2022-08-10T14:25:07.456Z,3.92
2022-08-10T14:28:02.409Z,3.08
2022-08-10T14:30:30.795Z,3.42
2022-08-10T14:33:04.270Z,4.63
2022-08-10T14:36:19.627Z,2.90
2022-08-10T14:38:29.126Z,3.90
2022-08-10T14:40:58.922Z,4.93
2022-08-10T14:43:33.129Z,2.72
2022-08-10T14:46:03.814Z,2.28
2022-08-10T14:48:39.733Z,5.55
2022-08-10T14:51:09.342Z,3.13
2022-08-10T14:53:38.433Z,9.18
2022-08-10T14:56:09.413Z,6.90
2022-08-10T14:58:59.082Z,2.03
2022-08-10T15:02:00.158Z,2.38
2022-08-10T15:04:24.739Z,2.15
2022-08-10T15:06:55.920Z,2.95
2022-08-10T15:09:25.513Z,4.43
2022-08-10T15:12:15.068Z,1.70
2022-08-10T15:14:46.061Z,2.28
2022-08-10T15:17:23.751Z,3.22
2022-08-10T15:20:04.489Z,3.15
2022-08-10T15:22:44.171Z,2.13
2022-08-10T15:25:19.623Z,1.60
2022-08-10T15:27:57.362Z,2.97
2022-08-10T15:30:31.098Z,3.25
2022-08-10T15:33:21.360Z,5.80
2022-08-10T15:36:27.772Z,2.45
2022-08-10T15:38:59.798Z,3.78
2022-08-10T15:41:57.948Z,4.97
2022-08-10T15:44:37.520Z,2.17
2022-08-10T15:47:11.055Z,3.08
2022-08-10T15:49:52.052Z,1.48
2022-08-10T15:52:39.235Z,2.45
2022-08-10T15:55:43.190Z,2.30
2022-08-10T15:58:09.407Z,4.07
2022-08-10T16:00:44.642Z,3.25
2022-08-10T16:03:22.456Z,2.33
2022-08-10T16:06:01.895Z,3.22
2022-08-10T16:08:56.667Z,3.17
2022-08-10T16:11:38.074Z,5.32
2022-08-10T16:14:10.536Z,4.00
2022-08-10T16:16:40.193Z,2.33
2022-08-10T16:19:22.492Z,5.38
2022-08-10T16:21:57.200Z,1.38
2022-08-10T16:24:25.815Z,2.85
2022-08-10T16:26:54.675Z,2.75
2022-08-10T16:29:24.927Z,5.97
2022-08-10T16:31:54.580Z,1.75
2022-08-10T16:34:26.027Z,2.15
2022-08-10T16:36:56.478Z,2.35
2022-08-10T16:39:58.234Z,2.53
2022-08-10T16:42:18.958Z,2.22
2022-08-10T16:44:52.892Z,4.82
2022-08-10T16:47:27.301Z,4.57
2022-08-10T16:50:01.507Z,3.17
2022-08-10T16:52:34.323Z,4.30
2022-08-10T16:55:19.487Z,6.10
2022-08-10T16:57:56.863Z,2.15
2022-08-10T17:00:25.819Z,3.97
2022-08-10T17:02:57.268Z,2.58
2022-08-10T17:06:09.492Z,4.65
2022-08-10T17:08:20.897Z,4.80
2022-08-10T17:10:51.770Z,2.33
2022-08-10T17:13:24.058Z,2.05
2022-08-10T17:15:56.629Z,3.17
2022-08-10T17:18:28.362Z,3.10
2022-08-10T17:20:59.696Z,4.82
2022-08-10T17:23:31.629Z,4.50
2022-08-10T17:26:03.090Z,1.92
2022-08-10T17:28:40.038Z,3.55
2022-08-10T17:31:24.169Z,4.35
2022-08-10T17:34:06.700Z,2.97
2022-08-10T17:36:37.135Z,4.50
2022-08-10T17:39:08.649Z,2.80
2022-08-10T17:41:37.908Z,3.60
2022-08-10T17:44:06.666Z,6.43
2022-08-10T17:46:38.754Z,8.85
2022-08-10T17:49:09.151Z,8.00
2022-08-10T17:51:40.543Z,6.03
2022-08-10T17:54:15.187Z,4.35
2022-08-10T17:56:42.934Z,4.30
2022-08-10T17:59:17.397Z,4.63
2022-08-10T18:02:01.579Z,4.55
2022-08-10T18:04:41.988Z,3.83
2022-08-10T18:07:12.825Z,3.08
2022-08-10T18:09:45.002Z,5.05
2022-08-10T18:12:18.406Z,4.10
2022-08-10T18:14:50.235Z,3.10
2022-08-10T18:17:21.836Z,4.72
2022-08-10T18:19:53.729Z,2.95
2022-08-10T18:22:25.054Z,2.95
2022-08-10T18:24:54.230Z,4.28
2022-08-10T18:27:22.883Z,4.50
2022-08-10T18:30:11.949Z,3.57
2022-08-10T18:32:39.913Z,4.70
2022-08-10T18:35:08.348Z,7.13
2022-08-10T18:37:38.739Z,16.98
2022-08-10T18:40:08.008Z,43.70
2022-08-10T18:42:41.101Z,10.38
2022-08-10T18:45:12.301Z,8.63
2022-08-10T18:47:58.429Z,6.63
2022-08-10T18:50:31.060Z,9.63
2022-08-10T18:53:02.939Z,9.48
2022-08-10T18:55:35.538Z,6.63
2022-08-10T18:58:49.291Z,8.60
2022-08-10T19:01:31.127Z,27.23
2022-08-10T19:04:13.850Z,20.40
2022-08-10T19:07:08.496Z,18.08
2022-08-10T19:09:54.533Z,23.55
2022-08-10T19:12:39.495Z,26.08
2022-08-10T19:15:25.242Z,17.38
2022-08-10T19:18:11.429Z,20.83
2022-08-10T19:20:47.386Z,16.02
2022-08-10T19:23:27.271Z,12.80
2022-08-10T19:26:40.726Z,9.43
2022-08-10T19:29:03.198Z,9.00
2022-08-10T19:31:41.887Z,10.40
2022-08-10T19:34:33.682Z,8.70
2022-08-10T19:37:08.943Z,9.97
2022-08-10T19:39:50.630Z,9.55
2022-08-10T19:42:31.569Z,6.22
2022-08-10T19:45:06.594Z,10.68
2022-08-10T19:47:38.944Z,11.80
2022-08-10T19:50:11.199Z,18.52
2022-08-10T19:52:46.286Z,33.05
2022-08-10T19:55:21.432Z,17.05
2022-08-10T19:57:57.217Z,20.27
2022-08-10T20:00:29.589Z,26.08
2022-08-10T20:03:11.815Z,14.80
2022-08-10T20:06:18.054Z,20.60
2022-08-10T20:08:47.533Z,30.92
2022-08-10T20:11:44.346Z,16.80
2022-08-10T20:14:22.294Z,10.35
2022-08-10T20:16:53.459Z,10.07
2022-08-10T20:19:52.929Z,16.02
2022-08-10T20:22:29.131Z,10.73
2022-08-10T20:25:03.949Z,11.25
2022-08-10T20:28:00.709Z,13.98
2022-08-10T20:30:30.817Z,8.60
2022-08-10T20:33:07.875Z,6.00
2022-08-10T20:35:47.212Z,6.05
2022-08-10T20:38:22.414Z,11.35
2022-08-10T20:41:03.505Z,8.07
2022-08-10T20:43:44.071Z,11.35
2022-08-10T20:46:22.905Z,9.52
2022-08-10T20:48:58.585Z,9.07
2022-08-10T20:51:58.341Z,11.57
2022-08-10T20:54:21.928Z,8.27
2022-08-10T20:57:55.847Z,10.60
2022-08-10T21:00:07.882Z,10.77
2022-08-10T21:02:54.477Z,12.23
2022-08-10T21:05:30.324Z,10.50
2022-08-10T21:08:13.469Z,16.85
2022-08-10T21:11:02.462Z,17.73
2022-08-10T21:13:57.360Z,13.75
2022-08-10T21:16:49.509Z,13.13
2022-08-10T21:19:54.008Z,10.85
2022-08-10T21:22:29.384Z,11.65
2022-08-10T21:25:01.046Z,16.58
2022-08-10T21:27:59.291Z,10.88
2022-08-10T21:30:45.264Z,14.32
2022-08-10T21:33:42.932Z,17.50
2022-08-10T21:36:18.483Z,14.82
2022-08-10T21:38:51.696Z,16.45
2022-08-10T21:41:58.372Z,24.48
2022-08-10T21:45:08.033Z,33.97
2022-08-10T21:48:16.819Z,19.95
2022-08-10T21:51:16.420Z,9.05
2022-08-10T21:54:25.958Z,5.22
2022-08-10T21:57:20.651Z,7.82
2022-08-10T22:00:11.976Z,5.28
2022-08-10T22:02:59.470Z,8.40
2022-08-10T22:05:48.230Z,6.53
2022-08-10T22:08:37.622Z,10.10
2022-08-10T22:11:29.414Z,12.02
2022-08-10T22:14:25.746Z,12.75
2022-08-10T22:17:59.771Z,8.23
2022-08-10T22:23:41.831Z,14.52
2022-08-10T22:26:40.188Z,12.25
2022-08-10T22:29:42.306Z,9.80
2022-08-10T22:32:43.295Z,6.65
2022-08-10T22:35:56.034Z,10.95
2022-08-10T22:39:01.336Z,12.38
2022-08-10T22:42:05.089Z,10.10
2022-08-10T22:44:55.077Z,14.65
2022-08-10T22:47:43.322Z,15.38
2022-08-10T22:50:12.999Z,12.68
2022-08-10T22:58:38.373Z,9.00
2022-08-10T23:01:13.356Z,9.38
2022-08-10T23:03:51.438Z,16.95
2022-08-10T23:06:21.637Z,15.63
2022-08-10T23:08:53.125Z,10.38
2022-08-10T23:11:25.722Z,11.60
2022-08-10T23:14:01.404Z,13.30
2022-08-10T23:16:50.255Z,10.07
2022-08-10T23:19:22.650Z,9.63
2022-08-10T23:22:04.303Z,12.98
2022-08-10T23:24:37.715Z,13.70
2022-08-10T23:27:12.102Z,11.85
2022-08-10T23:30:09.533Z,11.43
2022-08-10T23:32:36.202Z,12.80
2022-08-10T23:36:32.056Z,13.55
2022-08-10T23:37:59.807Z,14.00
2022-08-10T23:40:27.582Z,10.23
2022-08-10T23:42:56.724Z,11.52
2022-08-10T23:45:27.945Z,13.60
2022-08-10T23:47:59.206Z,14.02
2022-08-10T23:50:28.351Z,13.82
2022-08-10T23:52:58.999Z,15.80
2022-08-10T23:55:29.584Z,11.15
2022-08-10T23:58:05.684Z,14.70
